sensor_id;sensor_type;location;lat;lon;timestamp;P1;durP1;ratioP1;P2;durP2;ratioP2
37001;SDS011;22913;51.910;8.374;2023-06-19T00:00:15;6.03;;;5.63;;
37001;SDS011;22913;51.910;8.374;2023-06-19T00:03:01;6.40;;;5.80;;
37001;SDS011;22913;51.910;8.374;2023-06-19T00:05:48;6.47;;;5.97;;
37001;SDS011;22913;51.910;8.374;2023-06-19T00:08:33;6.17;;;5.67;;
37001;SDS011;22913;51.910;8.374;2023-06-19T00:11:20;6.47;;;5.97;;
37001;SDS011;22913;51.910;8.374;2023-06-19T00:14:05;6.20;;;5.70;;
37001;SDS011;22913;51.910;8.374;2023-06-19T00:16:51;6.20;;;5.70;;
37001;SDS011;22913;51.910;8.374;2023-06-19T00:19:37;6.07;;;5.57;;
37001;SDS011;22913;51.910;8.374;2023-06-19T00:22:24;6.50;;;5.67;;
37001;SDS011;22913;51.910;8.374;2023-06-19T00:25:10;6.17;;;5.57;;
37001;SDS011;22913;51.910;8.374;2023-06-19T00:27:55;6.30;;;5.80;;
37001;SDS011;22913;51.910;8.374;2023-06-19T00:30:41;5.80;;;5.30;;
37001;SDS011;22913;51.910;8.374;2023-06-19T00:33:27;6.60;;;6.10;;
37001;SDS011;22913;51.910;8.374;2023-06-19T00:36:14;6.30;;;5.80;;
37001;SDS011;22913;51.910;8.374;2023-06-19T00:39:05;5.67;;;5.23;;
37001;SDS011;22913;51.910;8.374;2023-06-19T00:41:51;6.20;;;5.70;;
37001;SDS011;22913;51.910;8.374;2023-06-19T00:44:37;6.60;;;6.00;;
37001;SDS011;22913;51.910;8.374;2023-06-19T00:47:22;6.57;;;5.97;;
37001;SDS011;22913;51.910;8.374;2023-06-19T00:50:09;6.47;;;5.53;;
37001;SDS011;22913;51.910;8.374;2023-06-19T00:52:56;6.33;;;5.77;;
37001;SDS011;22913;51.910;8.374;2023-06-19T00:55:43;6.40;;;5.83;;
37001;SDS011;22913;51.910;8.374;2023-06-19T00:58:30;6.73;;;6.10;;
37001;SDS011;22913;51.910;8.374;2023-06-19T01:01:15;6.70;;;6.07;;
37001;SDS011;22913;51.910;8.374;2023-06-19T01:04:01;6.20;;;5.70;;
37001;SDS011;22913;51.910;8.374;2023-06-19T01:06:50;6.33;;;5.83;;
37001;SDS011;22913;51.910;8.374;2023-06-19T01:09:43;6.27;;;5.87;;
37001;SDS011;22913;51.910;8.374;2023-06-19T01:12:36;6.60;;;6.00;;
37001;SDS011;22913;51.910;8.374;2023-06-19T01:15:26;9.40;;;6.10;;
37001;SDS011;22913;51.910;8.374;2023-06-19T01:18:12;5.83;;;5.33;;
37001;SDS011;22913;51.910;8.374;2023-06-19T01:21:08;6.53;;;6.03;;
37001;SDS011;22913;51.910;8.374;2023-06-19T01:23:56;6.53;;;6.03;;
37001;SDS011;22913;51.910;8.374;2023-06-19T01:26:42;6.60;;;6.00;;
37001;SDS011;22913;51.910;8.374;2023-06-19T01:29:29;6.00;;;5.60;;
37001;SDS011;22913;51.910;8.374;2023-06-19T01:32:15;7.10;;;6.13;;
37001;SDS011;22913;51.910;8.374;2023-06-19T01:35:04;6.40;;;5.80;;
37001;SDS011;22913;51.910;8.374;2023-06-19T01:37:52;11.27;;;6.07;;
37001;SDS011;22913;51.910;8.374;2023-06-19T01:40:40;6.23;;;5.60;;
37001;SDS011;22913;51.910;8.374;2023-06-19T01:43:27;6.03;;;5.60;;
37001;SDS011;22913;51.910;8.374;2023-06-19T01:46:14;6.63;;;6.10;;
37001;SDS011;22913;51.910;8.374;2023-06-19T01:49:00;6.03;;;5.63;;
37001;SDS011;22913;51.910;8.374;2023-06-19T01:51:46;6.27;;;5.67;;
37001;SDS011;22913;51.910;8.374;2023-06-19T01:54:31;6.07;;;5.57;;
37001;SDS011;22913;51.910;8.374;2023-06-19T01:57:18;6.07;;;5.30;;
37001;SDS011;22913;51.910;8.374;2023-06-19T02:00:05;6.27;;;5.73;;
37001;SDS011;22913;51.910;8.374;2023-06-19T02:02:53;6.10;;;5.50;;
37001;SDS011;22913;51.910;8.374;2023-06-19T02:05:40;6.77;;;5.63;;
37001;SDS011;22913;51.910;8.374;2023-06-19T02:08:25;6.60;;;6.00;;
37001;SDS011;22913;51.910;8.374;2023-06-19T02:11:11;6.40;;;5.90;;
37001;SDS011;22913;51.910;8.374;2023-06-19T02:13:58;6.40;;;5.90;;
37001;SDS011;22913;51.910;8.374;2023-06-19T02:16:44;5.97;;;5.43;;
37001;SDS011;22913;51.910;8.374;2023-06-19T02:19:30;6.80;;;6.30;;
37001;SDS011;22913;51.910;8.374;2023-06-19T02:22:17;6.70;;;6.10;;
37001;SDS011;22913;51.910;8.374;2023-06-19T02:25:04;7.50;;;5.90;;
37001;SDS011;22913;51.910;8.374;2023-06-19T02:27:49;6.30;;;5.80;;
37001;SDS011;22913;51.910;8.374;2023-06-19T02:30:36;6.93;;;6.27;;
37001;SDS011;22913;51.910;8.374;2023-06-19T02:33:22;6.40;;;5.90;;
37001;SDS011;22913;51.910;8.374;2023-06-19T02:36:08;7.10;;;6.40;;
37001;SDS011;22913;51.910;8.374;2023-06-19T02:38:53;6.10;;;5.63;;
37001;SDS011;22913;51.910;8.374;2023-06-19T02:41:39;6.50;;;5.93;;
37001;SDS011;22913;51.910;8.374;2023-06-19T02:44:26;6.27;;;5.77;;
37001;SDS011;22913;51.910;8.374;2023-06-19T02:47:13;6.07;;;5.57;;
37001;SDS011;22913;51.910;8.374;2023-06-19T02:50:00;6.50;;;6.00;;
37001;SDS011;22913;51.910;8.374;2023-06-19T02:52:46;6.63;;;6.07;;
37001;SDS011;22913;51.910;8.374;2023-06-19T02:55:32;6.90;;;6.10;;
37001;SDS011;22913;51.910;8.374;2023-06-19T02:58:18;6.57;;;5.97;;
37001;SDS011;22913;51.910;8.374;2023-06-19T03:01:04;6.40;;;5.90;;
37001;SDS011;22913;51.910;8.374;2023-06-19T03:03:52;6.10;;;5.50;;
37001;SDS011;22913;51.910;8.374;2023-06-19T03:06:37;5.90;;;5.27;;
37001;SDS011;22913;51.910;8.374;2023-06-19T03:09:23;6.97;;;6.20;;
37001;SDS011;22913;51.910;8.374;2023-06-19T03:12:09;6.80;;;6.10;;
37001;SDS011;22913;51.910;8.374;2023-06-19T03:14:54;6.60;;;6.10;;
37001;SDS011;22913;51.910;8.374;2023-06-19T03:17:40;6.13;;;5.57;;
37001;SDS011;22913;51.910;8.374;2023-06-19T03:20:27;7.20;;;6.27;;
37001;SDS011;22913;51.910;8.374;2023-06-19T03:23:13;6.37;;;5.57;;
37001;SDS011;22913;51.910;8.374;2023-06-19T03:25:59;7.23;;;5.63;;
37001;SDS011;22913;51.910;8.374;2023-06-19T03:28:44;6.40;;;5.90;;
37001;SDS011;22913;51.910;8.374;2023-06-19T03:31:31;6.73;;;6.03;;
37001;SDS011;22913;51.910;8.374;2023-06-19T03:34:17;6.70;;;6.20;;
37001;SDS011;22913;51.910;8.374;2023-06-19T03:37:04;6.63;;;5.93;;
37001;SDS011;22913;51.910;8.374;2023-06-19T03:39:50;6.30;;;5.80;;
37001;SDS011;22913;51.910;8.374;2023-06-19T03:42:35;6.30;;;5.87;;
37001;SDS011;22913;51.910;8.374;2023-06-19T03:45:21;5.53;;;5.03;;
37001;SDS011;22913;51.910;8.374;2023-06-19T03:48:06;5.33;;;4.87;;
37001;SDS011;22913;51.910;8.374;2023-06-19T03:50:52;4.70;;;4.40;;
37001;SDS011;22913;51.910;8.374;2023-06-19T03:53:40;5.83;;;5.40;;
37001;SDS011;22913;51.910;8.374;2023-06-19T03:56:26;6.00;;;5.50;;
37001;SDS011;22913;51.910;8.374;2023-06-19T03:59:12;6.50;;;5.90;;
37001;SDS011;22913;51.910;8.374;2023-06-19T04:01:58;8.77;;;6.40;;
37001;SDS011;22913;51.910;8.374;2023-06-19T04:04:43;6.90;;;6.00;;
37001;SDS011;22913;51.910;8.374;2023-06-19T04:07:29;6.17;;;5.77;;
37001;SDS011;22913;51.910;8.374;2023-06-19T04:10:16;6.93;;;6.17;;
37001;SDS011;22913;51.910;8.374;2023-06-19T04:13:02;6.37;;;5.87;;
37001;SDS011;22913;51.910;8.374;2023-06-19T04:15:50;6.27;;;5.77;;
37001;SDS011;22913;51.910;8.374;2023-06-19T04:18:35;6.40;;;5.80;;
37001;SDS011;22913;51.910;8.374;2023-06-19T04:21:21;6.00;;;5.53;;
37001;SDS011;22913;51.910;8.374;2023-06-19T04:24:07;6.33;;;5.83;;
37001;SDS011;22913;51.910;8.374;2023-06-19T04:26:54;6.23;;;5.63;;
37001;SDS011;22913;51.910;8.374;2023-06-19T04:29:39;6.57;;;6.03;;
37001;SDS011;22913;51.910;8.374;2023-06-19T04:32:25;6.43;;;5.93;;
37001;SDS011;22913;51.910;8.374;2023-06-19T04:35:11;7.10;;;5.40;;
37001;SDS011;22913;51.910;8.374;2023-06-19T04:37:57;6.73;;;5.73;;
37001;SDS011;22913;51.910;8.374;2023-06-19T04:40:44;6.50;;;6.00;;
37001;SDS011;22913;51.910;8.374;2023-06-19T04:43:32;5.93;;;5.53;;
37001;SDS011;22913;51.910;8.374;2023-06-19T04:46:18;6.83;;;6.30;;
37001;SDS011;22913;51.910;8.374;2023-06-19T04:49:04;6.93;;;6.20;;
37001;SDS011;22913;51.910;8.374;2023-06-19T04:51:49;6.60;;;6.07;;
37001;SDS011;22913;51.910;8.374;2023-06-19T04:54:35;6.77;;;5.70;;
37001;SDS011;22913;51.910;8.374;2023-06-19T04:57:21;6.30;;;5.80;;
37001;SDS011;22913;51.910;8.374;2023-06-19T05:00:08;6.33;;;5.73;;
37001;SDS011;22913;51.910;8.374;2023-06-19T05:02:55;6.13;;;5.53;;
37001;SDS011;22913;51.910;8.374;2023-06-19T05:05:44;6.20;;;5.60;;
37001;SDS011;22913;51.910;8.374;2023-06-19T05:08:29;5.50;;;5.10;;
37001;SDS011;22913;51.910;8.374;2023-06-19T05:11:15;6.23;;;5.63;;
37001;SDS011;22913;51.910;8.374;2023-06-19T05:14:01;5.53;;;5.03;;
37001;SDS011;22913;51.910;8.374;2023-06-19T05:16:48;5.60;;;5.10;;
37001;SDS011;22913;51.910;8.374;2023-06-19T05:19:33;6.07;;;4.63;;
37001;SDS011;22913;51.910;8.374;2023-06-19T05:22:19;5.23;;;4.83;;
37001;SDS011;22913;51.910;8.374;2023-06-19T05:25:05;4.80;;;4.40;;
37001;SDS011;22913;51.910;8.374;2023-06-19T05:27:52;5.13;;;4.73;;
37001;SDS011;22913;51.910;8.374;2023-06-19T05:30:37;5.47;;;4.20;;
37001;SDS011;22913;51.910;8.374;2023-06-19T05:33:25;6.80;;;4.47;;
37001;SDS011;22913;51.910;8.374;2023-06-19T05:36:11;5.57;;;4.60;;
37001;SDS011;22913;51.910;8.374;2023-06-19T05:38:56;4.33;;;4.03;;
37001;SDS011;22913;51.910;8.374;2023-06-19T05:41:42;5.03;;;4.57;;
37001;SDS011;22913;51.910;8.374;2023-06-19T05:44:29;4.73;;;4.33;;
37001;SDS011;22913;51.910;8.374;2023-06-19T05:47:15;4.60;;;4.30;;
37001;SDS011;22913;51.910;8.374;2023-06-19T05:50:06;4.40;;;4.10;;
37001;SDS011;22913;51.910;8.374;2023-06-19T05:52:52;4.87;;;4.30;;
37001;SDS011;22913;51.910;8.374;2023-06-19T05:55:38;4.83;;;4.30;;
37001;SDS011;22913;51.910;8.374;2023-06-19T05:58:24;4.33;;;3.93;;
37001;SDS011;22913;51.910;8.374;2023-06-19T06:01:09;4.80;;;4.00;;
37001;SDS011;22913;51.910;8.374;2023-06-19T06:03:56;12.73;;;3.83;;
37001;SDS011;22913;51.910;8.374;2023-06-19T06:06:43;4.27;;;3.97;;
37001;SDS011;22913;51.910;8.374;2023-06-19T06:09:28;5.57;;;3.47;;
37001;SDS011;22913;51.910;8.374;2023-06-19T06:12:14;5.43;;;3.80;;
37001;SDS011;22913;51.910;8.374;2023-06-19T06:15:00;3.00;;;2.80;;
37001;SDS011;22913;51.910;8.374;2023-06-19T06:17:45;3.17;;;2.97;;
37001;SDS011;22913;51.910;8.374;2023-06-19T06:20:31;3.40;;;3.13;;
37001;SDS011;22913;51.910;8.374;2023-06-19T06:23:18;3.27;;;2.90;;
37001;SDS011;22913;51.910;8.374;2023-06-19T06:26:03;3.40;;;2.90;;
37001;SDS011;22913;51.910;8.374;2023-06-19T06:28:49;5.40;;;3.20;;
37001;SDS011;22913;51.910;8.374;2023-06-19T06:31:37;3.00;;;2.80;;
37001;SDS011;22913;51.910;8.374;2023-06-19T06:34:23;2.83;;;2.63;;
37001;SDS011;22913;51.910;8.374;2023-06-19T06:37:09;4.17;;;3.00;;
37001;SDS011;22913;51.910;8.374;2023-06-19T06:39:56;4.33;;;2.67;;
37001;SDS011;22913;51.910;8.374;2023-06-19T06:42:41;3.23;;;3.03;;
37001;SDS011;22913;51.910;8.374;2023-06-19T06:45:27;3.40;;;3.10;;
37001;SDS011;22913;51.910;8.374;2023-06-19T06:48:12;2.63;;;2.43;;
37001;SDS011;22913;51.910;8.374;2023-06-19T06:50:59;3.67;;;2.63;;
37001;SDS011;22913;51.910;8.374;2023-06-19T06:53:45;3.10;;;2.67;;
37001;SDS011;22913;51.910;8.374;2023-06-19T06:56:32;3.30;;;2.50;;
37001;SDS011;22913;51.910;8.374;2023-06-19T06:59:17;8.53;;;2.70;;
37001;SDS011;22913;51.910;8.374;2023-06-19T07:02:03;2.80;;;2.60;;
37001;SDS011;22913;51.910;8.374;2023-06-19T07:04:49;2.70;;;2.50;;
37001;SDS011;22913;51.910;8.374;2023-06-19T07:07:36;7.87;;;2.70;;
37001;SDS011;22913;51.910;8.374;2023-06-19T07:10:22;3.93;;;3.00;;
37001;SDS011;22913;51.910;8.374;2023-06-19T07:13:09;2.80;;;2.60;;
37001;SDS011;22913;51.910;8.374;2023-06-19T07:15:54;2.60;;;2.40;;
37001;SDS011;22913;51.910;8.374;2023-06-19T07:18:40;3.83;;;2.30;;
37001;SDS011;22913;51.910;8.374;2023-06-19T07:21:25;1.80;;;1.70;;
37001;SDS011;22913;51.910;8.374;2023-06-19T07:24:13;3.87;;;2.07;;
37001;SDS011;22913;51.910;8.374;2023-06-19T07:26:58;1.90;;;1.80;;
37001;SDS011;22913;51.910;8.374;2023-06-19T07:29:45;2.43;;;2.23;;
37001;SDS011;22913;51.910;8.374;2023-06-19T07:32:31;3.07;;;2.13;;
37001;SDS011;22913;51.910;8.374;2023-06-19T07:35:16;2.60;;;2.00;;
37001;SDS011;22913;51.910;8.374;2023-06-19T07:38:02;2.10;;;2.00;;
37001;SDS011;22913;51.910;8.374;2023-06-19T07:40:47;2.40;;;2.30;;
37001;SDS011;22913;51.910;8.374;2023-06-19T07:43:33;3.27;;;2.30;;
37001;SDS011;22913;51.910;8.374;2023-06-19T07:46:20;2.57;;;2.37;;
37001;SDS011;22913;51.910;8.374;2023-06-19T07:49:06;2.30;;;2.10;;
37001;SDS011;22913;51.910;8.374;2023-06-19T07:51:51;2.57;;;2.30;;
37001;SDS011;22913;51.910;8.374;2023-06-19T07:54:47;2.60;;;2.40;;
37001;SDS011;22913;51.910;8.374;2023-06-19T07:57:33;4.83;;;2.37;;
37001;SDS011;22913;51.910;8.374;2023-06-19T08:00:19;2.87;;;2.67;;
37001;SDS011;22913;51.910;8.374;2023-06-19T08:03:06;2.70;;;2.50;;
37001;SDS011;22913;51.910;8.374;2023-06-19T08:05:52;2.83;;;2.57;;
37001;SDS011;22913;51.910;8.374;2023-06-19T08:08:37;2.47;;;2.27;;
37001;SDS011;22913;51.910;8.374;2023-06-19T08:11:23;2.53;;;2.33;;
37001;SDS011;22913;51.910;8.374;2023-06-19T08:14:09;3.90;;;2.30;;
37001;SDS011;22913;51.910;8.374;2023-06-19T08:16:55;2.63;;;2.20;;
37001;SDS011;22913;51.910;8.374;2023-06-19T08:19:42;3.73;;;2.53;;
37001;SDS011;22913;51.910;8.374;2023-06-19T08:22:27;2.83;;;2.63;;
37001;SDS011;22913;51.910;8.374;2023-06-19T08:25:13;2.70;;;2.50;;
37001;SDS011;22913;51.910;8.374;2023-06-19T08:27:58;5.23;;;2.10;;
37001;SDS011;22913;51.910;8.374;2023-06-19T08:30:44;3.13;;;2.43;;
37001;SDS011;22913;51.910;8.374;2023-06-19T08:33:30;3.40;;;2.70;;
37001;SDS011;22913;51.910;8.374;2023-06-19T08:36:17;2.70;;;2.60;;
37001;SDS011;22913;51.910;8.374;2023-06-19T08:39:02;3.23;;;3.00;;
37001;SDS011;22913;51.910;8.374;2023-06-19T08:41:48;3.53;;;3.27;;
37001;SDS011;22913;51.910;8.374;2023-06-19T08:44:34;2.87;;;2.67;;
37001;SDS011;22913;51.910;8.374;2023-06-19T08:47:20;3.20;;;2.90;;
37001;SDS011;22913;51.910;8.374;2023-06-19T08:50:06;3.30;;;3.00;;
37001;SDS011;22913;51.910;8.374;2023-06-19T08:52:54;3.20;;;2.90;;
37001;SDS011;22913;51.910;8.374;2023-06-19T08:55:40;8.47;;;3.03;;
37001;SDS011;22913;51.910;8.374;2023-06-19T08:58:25;3.30;;;3.10;;
37001;SDS011;22913;51.910;8.374;2023-06-19T09:01:13;3.77;;;3.17;;
37001;SDS011;22913;51.910;8.374;2023-06-19T09:04:07;4.53;;;3.63;;
37001;SDS011;22913;51.910;8.374;2023-06-19T09:06:54;3.47;;;3.27;;
37001;SDS011;22913;51.910;8.374;2023-06-19T09:09:45;3.90;;;3.70;;
37001;SDS011;22913;51.910;8.374;2023-06-19T09:12:31;3.60;;;3.40;;
37001;SDS011;22913;51.910;8.374;2023-06-19T09:15:17;3.67;;;3.37;;
37001;SDS011;22913;51.910;8.374;2023-06-19T09:18:03;3.70;;;3.50;;
37001;SDS011;22913;51.910;8.374;2023-06-19T09:20:51;5.73;;;3.50;;
37001;SDS011;22913;51.910;8.374;2023-06-19T09:23:39;5.33;;;3.37;;
37001;SDS011;22913;51.910;8.374;2023-06-19T09:26:26;3.80;;;3.50;;
37001;SDS011;22913;51.910;8.374;2023-06-19T09:29:12;3.87;;;3.67;;
37001;SDS011;22913;51.910;8.374;2023-06-19T09:31:59;5.70;;;3.87;;
37001;SDS011;22913;51.910;8.374;2023-06-19T09:34:45;4.17;;;3.77;;
37001;SDS011;22913;51.910;8.374;2023-06-19T09:37:31;4.90;;;3.20;;
37001;SDS011;22913;51.910;8.374;2023-06-19T09:40:17;3.07;;;2.87;;
37001;SDS011;22913;51.910;8.374;2023-06-19T09:43:04;3.10;;;2.90;;
37001;SDS011;22913;51.910;8.374;2023-06-19T09:45:55;3.57;;;2.90;;
37001;SDS011;22913;51.910;8.374;2023-06-19T09:48:42;2.90;;;2.70;;
37001;SDS011;22913;51.910;8.374;2023-06-19T09:51:30;2.73;;;2.63;;
37001;SDS011;22913;51.910;8.374;2023-06-19T09:54:17;2.57;;;2.40;;
37001;SDS011;22913;51.910;8.374;2023-06-19T09:57:05;2.50;;;2.30;;
37001;SDS011;22913;51.910;8.374;2023-06-19T09:59:53;2.30;;;2.20;;
37001;SDS011;22913;51.910;8.374;2023-06-19T10:02:41;2.67;;;2.50;;
37001;SDS011;22913;51.910;8.374;2023-06-19T10:05:29;4.77;;;2.37;;
37001;SDS011;22913;51.910;8.374;2023-06-19T10:08:25;2.57;;;2.37;;
37001;SDS011;22913;51.910;8.374;2023-06-19T10:11:13;4.47;;;2.63;;
37001;SDS011;22913;51.910;8.374;2023-06-19T10:14:05;2.57;;;2.47;;
37001;SDS011;22913;51.910;8.374;2023-06-19T10:16:52;2.43;;;2.33;;
37001;SDS011;22913;51.910;8.374;2023-06-19T10:19:37;3.00;;;2.70;;
37001;SDS011;22913;51.910;8.374;2023-06-19T10:22:33;2.70;;;2.50;;
37001;SDS011;22913;51.910;8.374;2023-06-19T10:25:20;3.40;;;2.97;;
37001;SDS011;22913;51.910;8.374;2023-06-19T10:28:15;3.50;;;3.20;;
37001;SDS011;22913;51.910;8.374;2023-06-19T10:31:02;6.00;;;3.40;;
37001;SDS011;22913;51.910;8.374;2023-06-19T10:33:50;3.47;;;3.17;;
37001;SDS011;22913;51.910;8.374;2023-06-19T10:36:35;3.40;;;3.10;;
37001;SDS011;22913;51.910;8.374;2023-06-19T10:39:21;3.73;;;3.50;;
37001;SDS011;22913;51.910;8.374;2023-06-19T10:42:07;3.87;;;3.47;;
37001;SDS011;22913;51.910;8.374;2023-06-19T10:44:58;4.63;;;3.93;;
37001;SDS011;22913;51.910;8.374;2023-06-19T10:47:47;4.13;;;3.47;;
37001;SDS011;22913;51.910;8.374;2023-06-19T10:50:38;3.83;;;3.53;;
37001;SDS011;22913;51.910;8.374;2023-06-19T10:53:27;3.57;;;3.37;;
37001;SDS011;22913;51.910;8.374;2023-06-19T10:56:15;3.53;;;3.33;;
37001;SDS011;22913;51.910;8.374;2023-06-19T10:59:06;3.37;;;3.17;;
37001;SDS011;22913;51.910;8.374;2023-06-19T11:01:53;3.27;;;3.03;;
37001;SDS011;22913;51.910;8.374;2023-06-19T11:04:39;3.30;;;3.10;;
37001;SDS011;22913;51.910;8.374;2023-06-19T11:07:26;3.37;;;2.97;;
37001;SDS011;22913;51.910;8.374;2023-06-19T11:10:18;2.77;;;2.67;;
37001;SDS011;22913;51.910;8.374;2023-06-19T11:13:06;2.90;;;2.70;;
37001;SDS011;22913;51.910;8.374;2023-06-19T11:15:51;2.87;;;2.30;;
37001;SDS011;22913;51.910;8.374;2023-06-19T11:18:37;2.90;;;2.70;;
37001;SDS011;22913;51.910;8.374;2023-06-19T11:21:28;2.37;;;2.27;;
37001;SDS011;22913;51.910;8.374;2023-06-19T11:24:18;2.30;;;2.10;;
37001;SDS011;22913;51.910;8.374;2023-06-19T11:27:04;2.40;;;2.20;;
37001;SDS011;22913;51.910;8.374;2023-06-19T11:29:55;2.20;;;2.10;;
37001;SDS011;22913;51.910;8.374;2023-06-19T11:32:42;2.10;;;2.00;;
37001;SDS011;22913;51.910;8.374;2023-06-19T11:35:32;3.37;;;2.30;;
37001;SDS011;22913;51.910;8.374;2023-06-19T11:38:19;2.60;;;2.40;;
37001;SDS011;22913;51.910;8.374;2023-06-19T11:41:07;2.83;;;2.20;;
37001;SDS011;22913;51.910;8.374;2023-06-19T11:43:57;2.43;;;2.30;;
37001;SDS011;22913;51.910;8.374;2023-06-19T11:46:44;2.90;;;2.70;;
37001;SDS011;22913;51.910;8.374;2023-06-19T11:49:34;2.60;;;2.50;;
37001;SDS011;22913;51.910;8.374;2023-06-19T11:52:20;4.03;;;2.67;;
37001;SDS011;22913;51.910;8.374;2023-06-19T11:55:06;2.70;;;2.60;;
37001;SDS011;22913;51.910;8.374;2023-06-19T11:57:54;2.60;;;2.40;;
37001;SDS011;22913;51.910;8.374;2023-06-19T12:00:39;2.60;;;2.40;;
37001;SDS011;22913;51.910;8.374;2023-06-19T12:03:25;3.23;;;2.60;;
37001;SDS011;22913;51.910;8.374;2023-06-19T12:06:10;2.57;;;2.40;;
37001;SDS011;22913;51.910;8.374;2023-06-19T12:08:56;2.27;;;2.17;;
37001;SDS011;22913;51.910;8.374;2023-06-19T12:11:42;2.73;;;2.40;;
37001;SDS011;22913;51.910;8.374;2023-06-19T12:14:29;2.70;;;2.50;;
37001;SDS011;22913;51.910;8.374;2023-06-19T12:17:15;2.83;;;2.63;;
37001;SDS011;22913;51.910;8.374;2023-06-19T12:20:01;2.40;;;2.30;;
37001;SDS011;22913;51.910;8.374;2023-06-19T12:22:49;2.87;;;2.40;;
37001;SDS011;22913;51.910;8.374;2023-06-19T12:25:34;3.00;;;1.90;;
37001;SDS011;22913;51.910;8.374;2023-06-19T12:28:20;2.27;;;2.17;;
37001;SDS011;22913;51.910;8.374;2023-06-19T12:31:07;1.93;;;1.83;;
37001;SDS011;22913;51.910;8.374;2023-06-19T12:33:53;2.10;;;2.00;;
37001;SDS011;22913;51.910;8.374;2023-06-19T12:36:39;2.13;;;2.00;;
37001;SDS011;22913;51.910;8.374;2023-06-19T12:39:25;5.10;;;2.10;;
37001;SDS011;22913;51.910;8.374;2023-06-19T12:42:11;2.50;;;2.20;;
37001;SDS011;22913;51.910;8.374;2023-06-19T12:44:57;2.37;;;2.17;;
37001;SDS011;22913;51.910;8.374;2023-06-19T12:47:44;2.10;;;2.00;;
37001;SDS011;22913;51.910;8.374;2023-06-19T12:50:29;2.10;;;2.00;;
37001;SDS011;22913;51.910;8.374;2023-06-19T12:53:15;2.10;;;2.00;;
37001;SDS011;22913;51.910;8.374;2023-06-19T12:56:01;1.73;;;1.63;;
37001;SDS011;22913;51.910;8.374;2023-06-19T12:58:47;1.80;;;1.70;;
37001;SDS011;22913;51.910;8.374;2023-06-19T13:01:33;1.70;;;1.60;;
37001;SDS011;22913;51.910;8.374;2023-06-19T13:04:20;1.77;;;1.67;;
37001;SDS011;22913;51.910;8.374;2023-06-19T13:07:05;2.30;;;2.10;;
37001;SDS011;22913;51.910;8.374;2023-06-19T13:09:51;3.50;;;1.90;;
37001;SDS011;22913;51.910;8.374;2023-06-19T13:12:37;2.17;;;2.07;;
37001;SDS011;22913;51.910;8.374;2023-06-19T13:15:22;2.23;;;1.97;;
37001;SDS011;22913;51.910;8.374;2023-06-19T13:18:08;1.88;;;1.75;;
37001;SDS011;22913;51.910;8.374;2023-06-19T13:20:55;2.33;;;2.20;;
37001;SDS011;22913;51.910;8.374;2023-06-19T13:23:40;2.40;;;2.20;;
37001;SDS011;22913;51.910;8.374;2023-06-19T13:26:26;2.20;;;2.10;;
37001;SDS011;22913;51.910;8.374;2023-06-19T13:29:12;2.50;;;2.30;;
37001;SDS011;22913;51.910;8.374;2023-06-19T13:31:58;2.28;;;2.17;;
37001;SDS011;22913;51.910;8.374;2023-06-19T13:34:43;2.53;;;2.33;;
37001;SDS011;22913;51.910;8.374;2023-06-19T13:37:30;2.67;;;2.53;;
37001;SDS011;22913;51.910;8.374;2023-06-19T13:40:18;6.57;;;2.60;;
37001;SDS011;22913;51.910;8.374;2023-06-19T13:43:03;3.23;;;2.90;;
37001;SDS011;22913;51.910;8.374;2023-06-19T13:45:50;3.13;;;2.93;;
37001;SDS011;22913;51.910;8.374;2023-06-19T13:48:36;2.90;;;2.70;;
37001;SDS011;22913;51.910;8.374;2023-06-19T13:51:22;4.77;;;2.47;;
37001;SDS011;22913;51.910;8.374;2023-06-19T13:54:09;3.67;;;2.70;;
37001;SDS011;22913;51.910;8.374;2023-06-19T13:56:56;3.17;;;2.97;;
37001;SDS011;22913;51.910;8.374;2023-06-19T13:59:42;2.90;;;2.70;;
37001;SDS011;22913;51.910;8.374;2023-06-19T14:02:28;2.80;;;2.60;;
37001;SDS011;22913;51.910;8.374;2023-06-19T14:05:13;5.10;;;2.87;;
37001;SDS011;22913;51.910;8.374;2023-06-19T14:07:59;3.40;;;3.10;;
37001;SDS011;22913;51.910;8.374;2023-06-19T14:10:46;3.10;;;2.80;;
37001;SDS011;22913;51.910;8.374;2023-06-19T14:13:32;5.23;;;2.90;;
37001;SDS011;22913;51.910;8.374;2023-06-19T14:16:18;3.33;;;3.13;;
37001;SDS011;22913;51.910;8.374;2023-06-19T14:19:03;2.90;;;2.70;;
37001;SDS011;22913;51.910;8.374;2023-06-19T14:21:49;3.50;;;2.80;;
37001;SDS011;22913;51.910;8.374;2023-06-19T14:24:36;3.67;;;3.37;;
37001;SDS011;22913;51.910;8.374;2023-06-19T14:27:23;3.23;;;3.00;;
37001;SDS011;22913;51.910;8.374;2023-06-19T14:30:09;4.87;;;2.93;;
37001;SDS011;22913;51.910;8.374;2023-06-19T14:32:55;3.40;;;3.10;;
37001;SDS011;22913;51.910;8.374;2023-06-19T14:35:41;4.00;;;2.90;;
37001;SDS011;22913;51.910;8.374;2023-06-19T14:38:28;3.07;;;2.87;;
37001;SDS011;22913;51.910;8.374;2023-06-19T14:41:16;3.63;;;3.33;;
37001;SDS011;22913;51.910;8.374;2023-06-19T14:44:04;3.40;;;3.10;;
37001;SDS011;22913;51.910;8.374;2023-06-19T14:46:50;3.40;;;3.13;;
37001;SDS011;22913;51.910;8.374;2023-06-19T14:49:35;3.53;;;3.23;;
37001;SDS011;22913;51.910;8.374;2023-06-19T14:52:21;3.40;;;3.17;;
37001;SDS011;22913;51.910;8.374;2023-06-19T14:55:07;3.23;;;3.03;;
37001;SDS011;22913;51.910;8.374;2023-06-19T14:57:53;3.33;;;3.13;;
37001;SDS011;22913;51.910;8.374;2023-06-19T15:00:40;3.50;;;3.20;;
37001;SDS011;22913;51.910;8.374;2023-06-19T15:03:26;5.67;;;3.00;;
37001;SDS011;22913;51.910;8.374;2023-06-19T15:06:12;3.53;;;3.23;;
37001;SDS011;22913;51.910;8.374;2023-06-19T15:08:57;3.27;;;2.97;;
37001;SDS011;22913;51.910;8.374;2023-06-19T15:11:43;4.60;;;3.37;;
37001;SDS011;22913;51.910;8.374;2023-06-19T15:14:29;3.60;;;3.20;;
37001;SDS011;22913;51.910;8.374;2023-06-19T15:17:16;3.90;;;3.47;;
37001;SDS011;22913;51.910;8.374;2023-06-19T15:20:03;5.05;;;3.00;;
37001;SDS011;22913;51.910;8.374;2023-06-19T15:22:49;3.33;;;3.13;;
37001;SDS011;22913;51.910;8.374;2023-06-19T15:25:35;3.43;;;3.10;;
37001;SDS011;22913;51.910;8.374;2023-06-19T15:28:20;3.33;;;3.13;;
37001;SDS011;22913;51.910;8.374;2023-06-19T15:31:06;3.47;;;3.17;;
37001;SDS011;22913;51.910;8.374;2023-06-19T15:33:54;3.58;;;3.38;;
37001;SDS011;22913;51.910;8.374;2023-06-19T15:36:40;5.15;;;3.58;;
37001;SDS011;22913;51.910;8.374;2023-06-19T15:39:25;3.20;;;3.00;;
37001;SDS011;22913;51.910;8.374;2023-06-19T15:42:11;3.53;;;3.30;;
37001;SDS011;22913;51.910;8.374;2023-06-19T15:44:57;3.42;;;3.22;;
37001;SDS011;22913;51.910;8.374;2023-06-19T15:47:42;3.60;;;3.03;;
37001;SDS011;22913;51.910;8.374;2023-06-19T15:50:29;3.78;;;3.20;;
37001;SDS011;22913;51.910;8.374;2023-06-19T15:53:16;4.70;;;3.17;;
37001;SDS011;22913;51.910;8.374;2023-06-19T15:56:02;3.78;;;3.47;;
37001;SDS011;22913;51.910;8.374;2023-06-19T15:58:48;4.07;;;3.77;;
37001;SDS011;22913;51.910;8.374;2023-06-19T16:01:34;3.73;;;3.43;;
37001;SDS011;22913;51.910;8.374;2023-06-19T16:04:20;3.70;;;3.40;;
37001;SDS011;22913;51.910;8.374;2023-06-19T16:07:07;4.10;;;3.60;;
37001;SDS011;22913;51.910;8.374;2023-06-19T16:09:53;3.83;;;3.50;;
37001;SDS011;22913;51.910;8.374;2023-06-19T16:12:38;3.70;;;3.40;;
37001;SDS011;22913;51.910;8.374;2023-06-19T16:15:24;3.77;;;3.57;;
37001;SDS011;22913;51.910;8.374;2023-06-19T16:18:12;3.90;;;3.60;;
37001;SDS011;22913;51.910;8.374;2023-06-19T16:20:58;3.90;;;3.70;;
37001;SDS011;22913;51.910;8.374;2023-06-19T16:23:45;3.50;;;3.30;;
37001;SDS011;22913;51.910;8.374;2023-06-19T16:26:30;3.67;;;3.37;;
37001;SDS011;22913;51.910;8.374;2023-06-19T16:29:16;4.00;;;3.30;;
37001;SDS011;22913;51.910;8.374;2023-06-19T16:32:02;3.27;;;3.07;;
37001;SDS011;22913;51.910;8.374;2023-06-19T16:34:48;5.47;;;3.27;;
37001;SDS011;22913;51.910;8.374;2023-06-19T16:37:34;3.97;;;3.43;;
37001;SDS011;22913;51.910;8.374;2023-06-19T16:40:21;3.63;;;3.43;;
37001;SDS011;22913;51.910;8.374;2023-06-19T16:43:08;4.07;;;3.20;;